createdAt,value
2023-07-12T00:01:18.856Z,78.10
2023-07-12T00:03:47.176Z,77.60
2023-07-12T00:06:17.472Z,77.60
2023-07-12T00:08:46.206Z,77.40
2023-07-12T00:11:18.268Z,77.30
2023-07-12T00:13:47.946Z,77.30
2023-07-12T00:16:21.615Z,76.30
2023-07-12T00:18:50.348Z,76.20
2023-07-12T00:21:24.299Z,75.30
2023-07-12T00:23:53.999Z,74.30
2023-07-12T00:26:25.420Z,74.30
2023-07-12T00:28:55.877Z,74.70
2023-07-12T00:31:25.928Z,74.90
2023-07-12T00:33:54.339Z,74.10
2023-07-12T00:36:24.884Z,73.70
2023-07-12T00:38:53.594Z,74.10
2023-07-12T00:41:31.734Z,74.50
2023-07-12T00:44:07.003Z,74.90
2023-07-12T00:46:39.893Z,74.80
2023-07-12T00:49:10.824Z,75.30
2023-07-12T00:51:51.326Z,75.10
2023-07-12T00:54:22.129Z,74.20
2023-07-12T00:56:50.333Z,74.30
2023-07-12T00:59:24.817Z,74.00
2023-07-12T01:01:56.320Z,73.90
2023-07-12T01:04:28.832Z,74.20
2023-07-12T01:06:57.104Z,74.70
2023-07-12T01:09:27.172Z,75.20
2023-07-12T01:11:57.369Z,74.90
2023-07-12T01:14:29.327Z,74.40
2023-07-12T01:17:01.498Z,74.60
2023-07-12T01:19:30.585Z,74.50
2023-07-12T01:22:00.498Z,74.50
2023-07-12T01:24:32.061Z,74.70
2023-07-12T01:27:02.544Z,75.90
2023-07-12T01:29:31.516Z,76.10
2023-07-12T01:31:59.918Z,76.50
2023-07-12T01:34:30.284Z,76.40
2023-07-12T01:36:59.853Z,77.60
2023-07-12T01:39:27.929Z,78.70
2023-07-12T01:41:56.096Z,79.40
2023-07-12T01:44:24.181Z,79.60
2023-07-12T01:46:53.646Z,81.30
2023-07-12T01:49:21.870Z,89.40
2023-07-12T01:51:52.207Z,94.20
2023-07-12T01:54:21.744Z,93.70
2023-07-12T01:56:49.916Z,96.70
2023-07-12T01:59:18.079Z,95.80
2023-07-12T02:01:46.295Z,94.40
2023-07-12T02:04:14.597Z,95.70
2023-07-12T02:06:43.724Z,95.50
2023-07-12T02:09:11.842Z,97.20
2023-07-12T02:11:41.408Z,98.60
2023-07-12T02:14:09.583Z,99.00
2023-07-12T02:16:37.735Z,98.70
2023-07-12T02:19:06.462Z,99.30
2023-07-12T02:21:34.634Z,99.60
2023-07-12T02:24:04.060Z,98.30
2023-07-12T02:26:32.319Z,97.90
2023-07-12T02:29:01.844Z,97.70
2023-07-12T02:31:33.028Z,97.80
2023-07-12T02:34:01.200Z,98.70
2023-07-12T02:36:29.330Z,97.10
2023-07-12T02:38:57.555Z,93.90
2023-07-12T02:41:25.739Z,97.00
2023-07-12T02:43:53.918Z,98.00
2023-07-12T02:46:23.469Z,96.00
2023-07-12T02:48:51.582Z,96.00
2023-07-12T02:51:19.703Z,96.60
2023-07-12T02:53:47.949Z,95.90
2023-07-12T02:56:16.123Z,95.70
2023-07-12T02:58:44.200Z,93.90
2023-07-12T03:01:12.755Z,92.80
2023-07-12T03:03:42.365Z,93.40
2023-07-12T03:06:12.493Z,90.70
2023-07-12T03:08:41.082Z,89.50
2023-07-12T03:11:10.895Z,90.20
2023-07-12T03:13:39.486Z,90.80
2023-07-12T03:16:09.143Z,89.70
2023-07-12T03:18:37.951Z,90.20
2023-07-12T03:21:08.536Z,90.50
2023-07-12T03:23:36.965Z,89.20
2023-07-12T03:26:05.409Z,88.70
2023-07-12T03:28:33.824Z,89.50
2023-07-12T03:31:03.916Z,89.00
2023-07-12T03:33:32.522Z,87.30
2023-07-12T03:36:01.509Z,87.80
2023-07-12T03:38:32.372Z,88.70
2023-07-12T03:41:04.964Z,88.80
2023-07-12T03:43:33.606Z,88.50
2023-07-12T03:46:02.078Z,87.90
2023-07-12T03:48:30.510Z,88.10
2023-07-12T03:50:58.810Z,86.50
2023-07-12T03:53:29.592Z,85.80
2023-07-12T03:56:03.025Z,85.00
2023-07-12T03:58:33.299Z,85.90
2023-07-12T04:01:04.941Z,85.80
2023-07-12T04:03:33.846Z,85.20
2023-07-12T04:06:02.759Z,84.10
2023-07-12T04:08:31.141Z,83.90
2023-07-12T04:11:01.482Z,83.60
2023-07-12T04:13:30.054Z,83.90
2023-07-12T04:15:59.589Z,83.40
2023-07-12T04:18:28.864Z,83.00
2023-07-12T04:21:00.252Z,82.80
2023-07-12T04:23:28.841Z,82.50
2023-07-12T04:26:02.444Z,82.60
2023-07-12T04:28:33.972Z,82.20
2023-07-12T04:31:05.511Z,82.60
2023-07-12T04:33:34.165Z,82.80
2023-07-12T04:36:06.811Z,82.20
2023-07-12T04:38:35.225Z,82.20
2023-07-12T04:41:05.641Z,81.60
2023-07-12T04:43:34.258Z,80.80
2023-07-12T04:46:04.556Z,81.00
2023-07-12T04:48:34.257Z,81.30
2023-07-12T04:51:04.687Z,80.40
2023-07-12T04:53:34.785Z,79.20
2023-07-12T04:56:04.795Z,79.40
2023-07-12T04:58:32.980Z,79.60
2023-07-12T05:01:03.502Z,79.60
2023-07-12T05:03:31.845Z,78.80
2023-07-12T05:06:09.817Z,78.70
2023-07-12T05:08:45.739Z,78.60
2023-07-12T05:11:15.260Z,78.50
2023-07-12T05:13:43.354Z,78.10
2023-07-12T05:16:13.423Z,77.90
2023-07-12T05:18:41.797Z,77.60
2023-07-12T05:21:10.855Z,77.60
2023-07-12T05:23:40.990Z,77.40
2023-07-12T05:26:09.568Z,76.40
2023-07-12T05:28:39.080Z,76.70
2023-07-12T05:31:08.503Z,77.40
2023-07-12T05:33:36.905Z,77.70
2023-07-12T05:36:06.605Z,77.50
2023-07-12T05:38:34.686Z,77.80
2023-07-12T05:41:02.839Z,77.90
2023-07-12T05:43:31.004Z,76.90
2023-07-12T05:46:00.516Z,77.30
2023-07-12T05:48:29.088Z,77.50
2023-07-12T05:51:00.493Z,77.10
2023-07-12T05:53:29.092Z,77.50
2023-07-12T05:55:57.851Z,77.60
2023-07-12T05:58:26.419Z,77.80
2023-07-12T06:00:59.304Z,78.50
2023-07-12T06:03:40.378Z,79.00
2023-07-12T06:06:09.149Z,78.50
2023-07-12T06:08:37.333Z,78.60
2023-07-12T06:11:05.870Z,79.20
2023-07-12T06:13:34.164Z,79.40
2023-07-12T06:16:04.369Z,79.50
2023-07-12T06:18:34.132Z,79.50
2023-07-12T06:21:08.653Z,80.00
2023-07-12T06:23:37.093Z,80.50
2023-07-12T06:26:06.011Z,80.70
2023-07-12T06:28:34.197Z,80.20
2023-07-12T06:31:04.013Z,80.60
2023-07-12T06:33:33.585Z,80.10
2023-07-12T06:36:02.405Z,80.00
2023-07-12T06:38:30.550Z,80.80
2023-07-12T06:40:59.872Z,81.20
2023-07-12T06:43:28.091Z,80.90
2023-07-12T06:45:56.825Z,80.70
2023-07-12T06:48:25.423Z,80.50
2023-07-12T06:50:56.200Z,79.90
2023-07-12T06:53:24.624Z,79.30
2023-07-12T06:55:52.751Z,79.40
2023-07-12T06:58:21.004Z,79.00
2023-07-12T07:00:49.674Z,79.30
2023-07-12T07:03:18.636Z,79.70
2023-07-12T07:05:48.432Z,79.90
2023-07-12T07:08:19.879Z,80.80
2023-07-12T07:10:51.322Z,81.00
2023-07-12T07:13:19.559Z,82.20
2023-07-12T07:15:48.065Z,82.20
2023-07-12T07:18:16.446Z,82.60
2023-07-12T07:20:46.471Z,82.50
2023-07-12T07:23:15.062Z,82.50
2023-07-12T07:25:44.952Z,82.30
2023-07-12T07:28:13.477Z,82.30
2023-07-12T07:30:41.691Z,81.30
2023-07-12T07:33:09.974Z,81.30
2023-07-12T07:35:38.808Z,80.70
2023-07-12T07:38:06.963Z,80.70
2023-07-12T07:40:35.144Z,80.70
2023-07-12T07:43:04.647Z,79.70
2023-07-12T07:45:32.743Z,79.60
2023-07-12T07:48:01.231Z,79.40
2023-07-12T07:50:29.451Z,78.90
2023-07-12T07:52:57.550Z,78.70
2023-07-12T07:55:27.617Z,78.30
2023-07-12T07:57:55.781Z,78.20
2023-07-12T08:00:25.411Z,78.00
2023-07-12T08:02:54.877Z,78.60
2023-07-12T08:05:23.078Z,78.20
2023-07-12T08:07:51.726Z,77.80
2023-07-12T08:10:20.362Z,77.90
2023-07-12T08:12:49.831Z,76.60
2023-07-12T08:15:20.107Z,75.70
2023-07-12T08:17:49.701Z,74.70
2023-07-12T08:20:18.025Z,74.20
2023-07-12T08:22:46.089Z,74.60
2023-07-12T08:25:15.512Z,74.00
2023-07-12T08:27:44.017Z,73.90
2023-07-12T08:30:13.797Z,73.30
2023-07-12T08:32:42.147Z,73.70
2023-07-12T08:35:13.330Z,74.00
2023-07-12T08:37:42.197Z,74.10
2023-07-12T08:40:15.335Z,73.60
2023-07-12T08:42:45.747Z,72.50
2023-07-12T08:45:24.458Z,72.00
2023-07-12T08:47:58.353Z,71.30
2023-07-12T08:50:30.844Z,71.20
2023-07-12T08:52:59.937Z,71.20
2023-07-12T08:58:03.491Z,71.40
2023-07-12T09:00:35.267Z,70.80
2023-07-12T09:03:04.041Z,70.50
2023-07-12T09:05:34.592Z,70.30
2023-07-12T09:08:18.724Z,71.10
2023-07-12T09:10:52.101Z,70.70
2023-07-12T09:13:20.325Z,70.40
2023-07-12T09:15:50.983Z,70.50
2023-07-12T09:18:30.872Z,71.20
2023-07-12T09:21:02.346Z,71.40
2023-07-12T09:23:38.626Z,71.30
2023-07-12T09:26:12.445Z,71.80
2023-07-12T09:28:41.114Z,71.60
2023-07-12T09:31:14.293Z,71.50
2023-07-12T09:33:43.181Z,71.60
2023-07-12T09:36:17.722Z,71.30
2023-07-12T09:38:45.868Z,71.30
2023-07-12T09:41:20.489Z,71.30
2023-07-12T09:43:54.847Z,71.00
2023-07-12T09:46:33.682Z,71.00
2023-07-12T09:49:06.622Z,71.20
2023-07-12T09:51:42.995Z,70.50
2023-07-12T09:54:26.814Z,70.50
2023-07-12T09:56:57.934Z,70.50
2023-07-12T09:59:39.151Z,70.50
2023-07-12T10:02:21.728Z,69.50
2023-07-12T10:04:53.401Z,69.50
2023-07-12T10:07:34.071Z,70.00
2023-07-12T10:10:02.300Z,69.70
2023-07-12T10:12:35.336Z,70.10
2023-07-12T10:15:04.389Z,69.70
2023-07-12T10:17:37.151Z,69.20
2023-07-12T10:20:06.404Z,68.90
2023-07-12T10:22:40.095Z,69.60
2023-07-12T10:25:19.741Z,69.70
2023-07-12T10:27:52.775Z,70.10
2023-07-12T10:30:23.836Z,70.10
2023-07-12T10:32:58.268Z,68.70
2023-07-12T10:35:37.496Z,68.20
2023-07-12T10:38:13.444Z,67.90
2023-07-12T10:40:49.693Z,67.40
2023-07-12T10:43:21.620Z,67.50
2023-07-12T10:45:52.019Z,67.50
2023-07-12T10:48:26.232Z,67.00
2023-07-12T10:50:58.382Z,67.80
2023-07-12T10:53:36.056Z,68.00
2023-07-12T10:56:14.442Z,67.80
2023-07-12T10:58:54.003Z,68.20
2023-07-12T11:01:54.086Z,68.50
2023-07-12T11:04:39.426Z,68.00
2023-07-12T11:07:38.446Z,67.30
2023-07-12T11:10:19.814Z,67.50
2023-07-12T11:13:04.388Z,66.90
2023-07-12T11:15:50.647Z,66.00
2023-07-12T11:18:25.806Z,64.60
2023-07-12T11:21:04.086Z,64.20
2023-07-12T11:23:50.089Z,64.60
2023-07-12T11:26:28.882Z,65.00
2023-07-12T11:29:18.383Z,65.30
2023-07-12T11:31:50.392Z,66.20
2023-07-12T11:34:21.416Z,65.90
2023-07-12T11:36:53.675Z,65.50
2023-07-12T11:39:25.591Z,66.00
2023-07-12T11:41:56.218Z,65.50
2023-07-12T11:44:26.770Z,65.70
2023-07-12T11:46:55.439Z,65.90
2023-07-12T11:49:27.488Z,65.20
2023-07-12T11:51:57.704Z,65.80
2023-07-12T11:54:27.683Z,65.10
2023-07-12T11:57:01.095Z,65.30
2023-07-12T11:59:32.294Z,65.30
2023-07-12T12:02:00.965Z,65.00
2023-07-12T12:04:32.050Z,64.20
2023-07-12T12:07:03.954Z,63.50
2023-07-12T12:09:34.895Z,63.20
2023-07-12T12:12:07.903Z,61.90
2023-07-12T12:14:42.245Z,61.80
2023-07-12T12:17:18.005Z,61.20
2023-07-12T12:19:49.815Z,61.40
2023-07-12T12:22:21.242Z,61.30
2023-07-12T12:24:51.244Z,61.50
2023-07-12T12:27:22.755Z,62.00
2023-07-12T12:29:51.716Z,61.80
2023-07-12T12:32:23.114Z,60.90
2023-07-12T12:34:53.992Z,60.20
2023-07-12T12:37:25.006Z,60.10
2023-07-12T12:40:01.126Z,60.00
2023-07-12T12:42:32.240Z,60.10
2023-07-12T12:45:00.708Z,60.30
2023-07-12T12:47:31.981Z,61.30
2023-07-12T12:53:26.896Z,61.40
2023-07-12T13:05:34.700Z,60.80
2023-07-12T13:18:47.653Z,61.10
2023-07-12T13:21:14.789Z,61.10
2023-07-12T13:23:43.326Z,61.40
2023-07-12T13:26:14.442Z,61.00
2023-07-12T13:28:44.161Z,60.80
2023-07-12T13:31:13.807Z,61.00
2023-07-12T13:33:42.039Z,59.30
2023-07-12T13:36:31.551Z,59.10
2023-07-12T13:46:50.358Z,59.10
2023-07-12T13:49:19.419Z,58.70
2023-07-12T13:51:49.036Z,58.40
2023-07-12T13:54:18.005Z,58.10
2023-07-12T13:56:48.064Z,56.40
2023-07-12T13:59:18.574Z,56.00
2023-07-12T14:03:05.346Z,55.60
2023-07-12T14:04:49.938Z,56.00
2023-07-12T14:08:08.298Z,55.40
2023-07-12T14:10:19.069Z,55.30
2023-07-12T14:12:49.983Z,55.00
2023-07-12T14:15:23.188Z,54.40
2023-07-12T14:17:53.241Z,54.80
2023-07-12T14:20:22.451Z,54.40
2023-07-12T14:22:50.640Z,53.50
2023-07-12T14:25:20.992Z,53.70
2023-07-12T14:27:49.250Z,53.20
2023-07-12T14:32:52.247Z,53.20
2023-07-12T14:35:25.307Z,53.30
2023-07-12T14:37:54.106Z,52.70
2023-07-12T14:40:23.532Z,52.20
2023-07-12T14:42:51.712Z,51.30
2023-07-12T14:45:21.484Z,50.50
2023-07-12T14:47:49.871Z,48.70
2023-07-12T14:50:21.485Z,48.00
2023-07-12T14:52:51.419Z,47.50
2023-07-12T14:55:20.353Z,46.90
2023-07-12T15:00:21.212Z,45.10
2023-07-12T15:02:53.719Z,44.10
2023-07-12T15:05:22.349Z,43.00
2023-07-12T15:07:52.332Z,41.50
2023-07-12T15:10:21.296Z,41.60
2023-07-12T15:12:52.288Z,41.00
2023-07-12T15:15:23.045Z,41.80
2023-07-12T15:17:54.358Z,42.30
2023-07-12T15:20:25.103Z,42.10
2023-07-12T15:22:55.086Z,41.70
2023-07-12T15:25:25.241Z,41.70
2023-07-12T15:27:54.025Z,42.60
2023-07-12T15:30:25.080Z,42.80
2023-07-12T15:32:57.218Z,41.90
2023-07-12T15:35:28.427Z,40.90
2023-07-12T15:37:59.575Z,39.40
2023-07-12T15:40:50.789Z,39.70
2023-07-12T15:43:20.662Z,40.20
2023-07-12T15:45:50.038Z,40.20
2023-07-12T15:48:19.906Z,39.90
2023-07-12T15:50:49.943Z,39.80
2023-07-12T15:53:22.083Z,40.10
2023-07-12T15:55:51.464Z,39.50
2023-07-12T15:58:21.874Z,39.10
2023-07-12T16:00:52.195Z,39.30
2023-07-12T16:03:23.483Z,38.80
2023-07-12T16:05:52.463Z,38.80
2023-07-12T16:08:23.252Z,40.00
2023-07-12T16:10:53.072Z,40.80
2023-07-12T16:13:23.542Z,40.20
2023-07-12T16:15:53.101Z,38.70
2023-07-12T16:18:22.804Z,38.90
2023-07-12T16:20:53.756Z,38.50
2023-07-12T16:23:29.586Z,38.40
2023-07-12T16:25:57.737Z,37.30
2023-07-12T16:28:25.875Z,36.60
2023-07-12T16:30:54.040Z,36.50
2023-07-12T16:33:26.120Z,37.80
2023-07-12T16:35:55.892Z,38.90
2023-07-12T16:38:26.893Z,39.80
2023-07-12T16:41:01.712Z,39.20
2023-07-12T16:43:30.155Z,39.20
2023-07-12T16:45:58.581Z,40.40
2023-07-12T16:48:26.838Z,41.80
2023-07-12T16:50:54.986Z,42.90
2023-07-12T16:53:32.435Z,43.70
2023-07-12T16:56:02.192Z,44.60
2023-07-12T16:58:31.438Z,45.10
2023-07-12T17:01:02.632Z,45.70
2023-07-12T17:03:35.682Z,46.00
2023-07-12T17:06:05.642Z,46.70
2023-07-12T17:08:36.462Z,46.60
2023-07-12T17:11:05.262Z,46.40
2023-07-12T17:13:33.579Z,46.00
2023-07-12T17:16:02.429Z,46.00
2023-07-12T17:18:30.874Z,46.00
2023-07-12T17:21:00.732Z,46.00
2023-07-12T17:23:31.342Z,46.00
2023-07-12T17:26:02.861Z,46.60
2023-07-12T17:28:32.675Z,46.40
2023-07-12T17:31:03.990Z,47.00
2023-07-12T17:33:32.129Z,47.30
2023-07-12T17:36:00.349Z,48.10
2023-07-12T17:38:29.015Z,48.40
2023-07-12T17:40:58.132Z,48.50
2023-07-12T17:43:29.935Z,48.40
2023-07-12T17:45:58.659Z,48.40
2023-07-12T17:48:26.969Z,48.40
2023-07-12T17:50:58.320Z,48.90
2023-07-12T17:53:26.835Z,49.10
2023-07-12T17:55:56.873Z,49.30
2023-07-12T17:58:28.840Z,48.90
2023-07-12T18:00:58.103Z,49.10
2023-07-12T18:03:28.620Z,49.30
2023-07-12T18:05:56.962Z,49.40
2023-07-12T18:08:25.419Z,49.70
2023-07-12T18:10:56.846Z,49.60
2023-07-12T18:13:29.190Z,49.80
2023-07-12T18:15:57.909Z,49.90
2023-07-12T18:18:26.329Z,50.30
2023-07-12T18:20:54.804Z,51.10
2023-07-12T18:23:26.782Z,51.70
2023-07-12T18:25:55.424Z,52.50
2023-07-12T18:28:23.799Z,53.70
2023-07-12T18:30:56.819Z,55.00
2023-07-12T18:33:25.910Z,55.90
2023-07-12T18:35:56.011Z,56.40
2023-07-12T18:38:24.601Z,56.70
2023-07-12T18:40:52.810Z,57.10
2023-07-12T18:43:27.302Z,57.60
2023-07-12T18:45:56.783Z,57.80
2023-07-12T18:48:25.395Z,58.50
2023-07-12T18:50:53.413Z,59.00
2023-07-12T18:53:23.332Z,59.10
2023-07-12T18:55:52.596Z,59.20
2023-07-12T18:58:22.408Z,59.20
2023-07-12T19:00:52.689Z,59.40
2023-07-12T19:03:33.385Z,59.80
2023-07-12T19:06:02.578Z,60.20
2023-07-12T19:08:30.823Z,60.30
2023-07-12T19:10:59.662Z,60.70
2023-07-12T19:13:27.747Z,60.60
2023-07-12T19:15:58.669Z,61.10
2023-07-12T19:18:30.082Z,61.60
2023-07-12T19:20:58.130Z,62.00
2023-07-12T19:23:26.208Z,62.20
2023-07-12T19:25:54.338Z,62.20
2023-07-12T19:28:22.524Z,62.50
2023-07-12T19:30:52.187Z,63.10
2023-07-12T19:33:20.911Z,63.70
2023-07-12T19:35:52.573Z,64.30
2023-07-12T19:38:21.751Z,64.50
2023-07-12T19:40:49.928Z,64.60
2023-07-12T19:43:18.080Z,64.50
2023-07-12T19:45:46.186Z,64.70
2023-07-12T19:48:14.870Z,64.80
2023-07-12T19:50:43.638Z,65.20
2023-07-12T19:53:27.034Z,65.20
2023-07-12T19:55:56.009Z,65.30
2023-07-12T19:58:24.136Z,65.40
2023-07-12T20:00:53.251Z,65.50
2023-07-12T20:03:21.465Z,65.50
2023-07-12T20:05:50.398Z,65.70
2023-07-12T20:08:20.178Z,66.10
2023-07-12T20:10:48.305Z,66.10
2023-07-12T20:13:16.402Z,66.00
2023-07-12T20:15:45.220Z,65.90
2023-07-12T20:18:13.430Z,65.80
2023-07-12T20:20:42.957Z,65.80
2023-07-12T20:23:11.205Z,66.00
2023-07-12T20:25:41.198Z,65.60
2023-07-12T20:28:09.329Z,65.50
2023-07-12T20:30:39.487Z,65.10
2023-07-12T20:33:08.810Z,65.20
2023-07-12T20:35:37.334Z,65.10
2023-07-12T20:38:06.872Z,65.10
2023-07-12T20:40:35.661Z,65.00
2023-07-12T20:43:05.871Z,64.90
2023-07-12T20:45:34.381Z,64.60
2023-07-12T20:48:03.173Z,64.50
2023-07-12T20:50:32.670Z,64.40
2023-07-12T20:53:02.515Z,64.50
2023-07-12T20:55:30.549Z,64.50
2023-07-12T20:58:00.218Z,64.50
2023-07-12T21:00:48.766Z,64.50
2023-07-12T21:03:18.175Z,64.60
2023-07-12T21:05:46.491Z,64.80
2023-07-12T21:08:15.131Z,65.00
2023-07-12T21:10:43.467Z,65.10
2023-07-12T21:13:11.549Z,65.10
2023-07-12T21:15:43.281Z,65.20
2023-07-12T21:18:11.398Z,65.20
2023-07-12T21:20:39.446Z,65.20
2023-07-12T21:23:08.077Z,65.50
2023-07-12T21:25:36.308Z,65.50
2023-07-12T21:28:04.652Z,65.60
2023-07-12T21:30:32.715Z,65.70
2023-07-12T21:33:02.157Z,65.80
2023-07-12T21:35:30.959Z,65.90
2023-07-12T21:37:59.118Z,66.00
2023-07-12T21:40:27.699Z,66.20
2023-07-12T21:42:55.755Z,66.20
2023-07-12T21:45:23.783Z,66.60
2023-07-12T21:47:51.912Z,66.90
2023-07-12T21:50:21.415Z,67.10
2023-07-12T21:52:49.848Z,67.40
2023-07-12T21:55:19.369Z,67.80
2023-07-12T21:57:48.512Z,67.80
2023-07-12T22:00:21.523Z,67.50
2023-07-12T22:02:50.426Z,67.20
2023-07-12T22:05:19.308Z,66.40
2023-07-12T22:07:54.772Z,66.70
2023-07-12T22:10:23.798Z,66.50
2023-07-12T22:12:52.038Z,66.00
2023-07-12T22:15:20.725Z,65.80
2023-07-12T22:17:49.108Z,65.60
2023-07-12T22:20:19.244Z,65.30
2023-07-12T22:22:49.353Z,65.10
2023-07-12T22:25:19.692Z,64.70
2023-07-12T22:27:48.632Z,64.50
2023-07-12T22:30:27.294Z,64.10
2023-07-12T22:32:55.628Z,63.60
2023-07-12T22:35:24.399Z,63.20
2023-07-12T22:37:55.046Z,63.40
2023-07-12T22:40:24.602Z,63.20
2023-07-12T22:42:53.438Z,62.90
2023-07-12T22:45:22.634Z,63.10
2023-07-12T22:47:50.790Z,62.80
2023-07-12T22:50:19.352Z,62.70
2023-07-12T22:52:47.468Z,62.40
2023-07-12T22:55:17.116Z,62.50
2023-07-12T22:57:45.879Z,62.50
2023-07-12T23:00:16.298Z,62.20
2023-07-12T23:02:44.802Z,61.90
2023-07-12T23:05:16.812Z,62.00
2023-07-12T23:07:48.223Z,62.00
2023-07-12T23:10:19.301Z,62.20
2023-07-12T23:12:47.350Z,62.30
2023-07-12T23:15:19.501Z,62.30
2023-07-12T23:17:47.719Z,62.00
2023-07-12T23:20:17.806Z,62.00
2023-07-12T23:22:46.016Z,62.00
2023-07-12T23:25:26.531Z,62.00
2023-07-12T23:27:55.534Z,61.80
2023-07-12T23:30:25.061Z,61.80
2023-07-12T23:32:53.863Z,62.00
2023-07-12T23:35:21.910Z,62.00
2023-07-12T23:37:49.986Z,62.00
2023-07-12T23:40:19.542Z,62.20
2023-07-12T23:42:47.763Z,62.40
2023-07-12T23:45:15.847Z,62.50
2023-07-12T23:47:43.964Z,62.60
2023-07-12T23:50:12.728Z,62.80
2023-07-12T23:52:41.077Z,62.70
2023-07-12T23:55:10.496Z,62.70
2023-07-12T23:57:40.063Z,62.90
